Time;durP1;ratioP1;P1;durP2;ratioP2;P2;SDS_P1;SDS_P2;PMS_P1;PMS_P2;Temp;Humidity;BMP_temperature;BMP_pressure;BME280_temperature;BME280_humidity;BME280_pressure;Samples;Min_cycle;Max_cycle;Signal;HPM_P1;HPM_P2
2024/01/08 05:22:33;;;;;;;1.20;1.10;;;;;;;-0.65;77.53;100847.53;5089355;28;20366;-36
2024/01/08 05:24:58;;;;;;;1.38;1.20;;;;;;;-0.65;78.65;100847.53;5089467;28;20048;-32
2024/01/08 05:27:23;;;;;;;1.77;1.38;;;;;;;-0.53;77.38;100851.22;5089213;28;20046;-33
2024/01/08 05:29:49;;;;;;;1.75;1.38;;;;;;;-0.49;78.41;100857.97;5089246;28;20043;-37
2024/01/08 05:32:14;;;;;;;1.70;1.60;;;;;;;-0.55;76.87;100864.41;5089189;28;20044;-32
2024/01/08 05:34:41;;;;;;;2.55;1.30;;;;;;;-0.63;77.82;100849.13;5089235;28;20078;-33
2024/01/08 05:37:07;;;;;;;1.97;1.10;;;;;;;-0.60;78.02;100856.78;5089037;28;20093;-32
2024/01/08 05:39:32;;;;;;;2.28;1.38;;;;;;;-0.57;77.34;100855.78;5089097;28;20299;-33
2024/01/08 05:41:58;;;;;;;2.55;1.70;;;;;;;-0.62;76.89;100853.44;5089019;28;20068;-32
2024/01/08 05:44:24;;;;;;;1.77;1.55;;;;;;;-0.65;76.69;100852.78;5089019;28;20032;-32
2024/01/08 05:46:49;;;;;;;1.08;0.98;;;;;;;-0.68;77.99;100861.63;5089382;28;20410;-39
2024/01/08 05:49:15;;;;;;;1.77;1.60;;;;;;;-0.53;75.62;100864.31;5092404;28;20044;-33
2024/01/08 05:51:40;;;;;;;2.08;1.75;;;;;;;-0.43;76.92;100861.09;5100236;28;20032;-33
2024/01/08 05:54:06;;;;;;;1.85;1.52;;;;;;;-0.49;76.36;100871.91;5105715;28;20031;-35
2024/01/08 05:56:31;;;;;;;2.10;1.85;;;;;;;-0.60;77.75;100863.81;5095559;28;20040;-37
2024/01/08 05:58:57;;;;;;;2.10;1.45;;;;;;;-0.67;76.73;100872.94;5081502;28;20067;-34
2024/01/08 06:01:23;;;;;;;1.85;1.60;;;;;;;-0.68;76.98;100876.50;5088444;28;20032;-33
2024/01/08 06:03:48;;;;;;;1.67;1.13;;;;;;;-0.75;78.87;100883.84;5088675;28;20040;-33
2024/01/08 06:06:14;;;;;;;0.90;0.90;;;;;;;-0.84;79.25;100874.75;5087705;28;20048;-38
2024/01/08 06:08:43;;;;;;;1.90;1.48;;;;;;;-0.66;78.45;100877.22;5088256;28;20127;-32
2024/01/08 06:11:08;;;;;;;2.13;1.73;;;;;;;-0.63;79.28;100871.84;5088268;28;20503;-33
2024/01/08 06:13:35;;;;;;;1.70;1.40;;;;;;;-0.69;80.20;100866.94;5088543;28;20078;-38
2024/01/08 06:16:01;;;;;;;1.38;1.27;;;;;;;-0.70;78.84;100873.13;5088097;28;20067;-32
2024/01/08 06:18:27;;;;;;;2.97;1.50;;;;;;;-0.68;80.31;100881.72;5087991;28;20464;-38
2024/01/08 06:20:53;;;;;;;1.25;1.13;;;;;;;-0.73;81.24;100873.28;5088151;28;20044;-33
2024/01/08 06:23:18;;;;;;;2.85;1.80;;;;;;;-0.68;80.22;100874.72;5088271;28;20094;-34
2024/01/08 06:25:44;;;;;;;1.98;1.17;;;;;;;-0.77;79.21;100879.63;5088176;28;20484;-32
2024/01/08 06:28:09;;;;;;;2.63;1.90;;;;;;;-0.82;81.36;100869.41;5088021;28;20064;-34
2024/01/08 06:30:34;;;;;;;3.72;1.60;;;;;;;-0.79;81.92;100873.63;5088093;28;20051;-34
2024/01/08 06:33:00;;;;;;;2.22;1.42;;;;;;;-0.77;80.00;100874.41;5079482;28;20036;-39
2024/01/08 06:35:25;;;;;;;1.48;1.17;;;;;;;-0.65;79.19;100873.72;5074491;28;20040;-33
2024/01/08 06:37:51;;;;;;;2.08;1.50;;;;;;;-0.77;78.36;100871.78;5074308;28;20162;-34
2024/01/08 06:40:16;;;;;;;2.78;2.10;;;;;;;-0.48;81.39;100870.97;5074443;28;20491;-41
2024/01/08 06:42:42;;;;;;;2.22;1.75;;;;;;;-0.56;78.43;100870.56;5074390;28;20174;-33
2024/01/08 06:45:08;;;;;;;1.13;1.00;;;;;;;-0.75;77.60;100876.00;5074216;28;20044;-34
2024/01/08 06:47:33;;;;;;;1.77;1.50;;;;;;;-0.74;77.85;100868.97;5073977;28;20036;-35
2024/01/08 06:49:59;;;;;;;1.52;1.42;;;;;;;-0.72;77.11;100877.56;5074156;28;20036;-33
2024/01/08 06:52:24;;;;;;;2.13;1.92;;;;;;;-0.73;76.79;100891.59;5074250;28;20480;-36
2024/01/08 06:54:50;;;;;;;2.08;1.85;;;;;;;-0.55;78.63;100885.34;5074124;28;20123;-35
2024/01/08 06:57:15;;;;;;;2.20;2.00;;;;;;;-0.57;78.56;100888.03;5073866;28;20043;-35
2024/01/08 06:59:40;;;;;;;2.47;1.85;;;;;;;-0.62;77.50;100897.06;5074132;28;20419;-37
2024/01/08 07:02:06;;;;;;;1.63;1.35;;;;;;;-0.74;76.45;100893.38;5074091;28;20040;-33
2024/01/08 07:04:31;;;;;;;2.78;2.00;;;;;;;-0.65;77.21;100890.25;5074014;28;20041;-33
2024/01/08 07:06:57;;;;;;;3.20;1.95;;;;;;;-0.75;78.86;100891.69;5073603;28;20044;-34
2024/01/08 07:09:22;;;;;;;2.38;1.58;;;;;;;-0.79;78.37;100905.84;5073913;28;20036;-33
2024/01/08 07:11:47;;;;;;;3.83;2.03;;;;;;;-0.68;78.86;100894.81;5073863;28;20435;-33
2024/01/08 07:14:13;;;;;;;2.22;1.70;;;;;;;-0.88;77.57;100915.06;5073843;28;20094;-36
2024/01/08 07:16:38;;;;;;;2.42;1.88;;;;;;;-0.79;77.63;100886.69;5073354;28;20036;-32
2024/01/08 07:19:04;;;;;;;4.22;2.05;;;;;;;-0.84;77.24;100897.44;5073755;28;20040;-34
2024/01/08 07:21:29;;;;;;;2.30;2.10;;;;;;;-0.74;77.80;100900.38;5073355;28;20449;-35
2024/01/08 07:23:54;;;;;;;2.83;2.13;;;;;;;-0.77;79.36;100900.56;5073501;28;20134;-34
2024/01/08 07:26:20;;;;;;;2.03;1.83;;;;;;;-0.80;78.58;100900.72;5073400;28;20039;-33
2024/01/08 07:28:46;;;;;;;1.42;1.25;;;;;;;-0.82;78.44;100912.09;5073391;28;20047;-35
2024/01/08 07:31:12;;;;;;;2.97;2.00;;;;;;;-0.60;78.02;100908.28;5073514;28;20101;-33
2024/01/08 07:33:39;;;;;;;2.13;1.92;;;;;;;-0.65;79.24;100911.19;5073453;28;20056;-33
2024/01/08 07:36:05;;;;;;;2.92;2.15;;;;;;;-0.73;79.39;100912.53;5066307;28;20040;-41
2024/01/08 07:38:31;;;;;;;2.58;2.10;;;;;;;-0.77;79.38;100909.25;5053315;28;20041;-38
2024/01/08 07:40:56;;;;;;;2.53;2.30;;;;;;;-0.71;79.26;100915.91;5053176;28;20543;-35
2024/01/08 07:43:22;;;;;;;2.08;1.75;;;;;;;-0.79;78.75;100908.47;5052865;28;20516;-35
2024/01/08 07:45:47;;;;;;;2.70;1.90;;;;;;;-0.74;78.59;100910.84;5051874;28;20405;-36
2024/01/08 07:48:13;;;;;;;2.83;2.25;;;;;;;-0.77;79.53;100905.78;5051925;28;20413;-33
2024/01/08 07:50:39;;;;;;;2.10;1.90;;;;;;;-0.64;78.73;100912.03;5051994;28;20146;-35
2024/01/08 07:53:04;;;;;;;3.90;2.13;;;;;;;-0.74;79.63;100911.69;5051275;28;20044;-34
2024/01/08 07:55:29;;;;;;;1.63;1.25;;;;;;;-0.78;80.26;100918.03;5052327;28;20037;-37
2024/01/08 07:57:55;;;;;;;2.08;1.88;;;;;;;-0.77;82.00;100908.41;5052408;28;20108;-33
2024/01/08 08:00:24;;;;;;;3.22;2.40;;;;;;;-0.66;81.32;100912.09;5052607;28;20147;-34
2024/01/08 08:02:49;;;;;;;3.05;2.20;;;;;;;-0.63;79.99;100913.72;5052573;28;20159;-39
2024/01/08 08:05:16;;;;;;;2.85;2.15;;;;;;;-0.50;80.04;100917.34;5052585;28;20115;-36
2024/01/08 08:07:41;;;;;;;4.68;2.72;;;;;;;-0.70;80.21;100930.69;5052237;28;20036;-34
2024/01/08 08:10:07;;;;;;;2.30;1.75;;;;;;;-0.72;79.26;100929.91;5052556;28;20040;-33
2024/01/08 08:12:33;;;;;;;3.95;2.50;;;;;;;-0.71;79.48;100926.38;5057635;28;20028;-34
2024/01/08 08:14:58;;;;;;;1.65;1.00;;;;;;;-0.72;79.40;100928.13;5072434;28;20063;-34
2024/01/08 08:17:25;;;;;;;3.55;2.42;;;;;;;-0.40;80.07;100933.34;5071623;28;20044;-33
2024/01/08 08:19:51;;;;;;;2.90;2.45;;;;;;;-0.60;80.41;100937.09;5072380;28;20051;-34
2024/01/08 08:22:16;;;;;;;3.78;2.58;;;;;;;-0.62;80.86;100944.19;5072185;28;20033;-36
2024/01/08 08:24:42;;;;;;;3.33;2.03;;;;;;;-0.71;78.92;100952.56;5072333;28;20037;-33
2024/01/08 08:27:12;;;;;;;3.30;2.00;;;;;;;-0.43;78.94;100938.78;5071893;28;20037;-33
2024/01/08 08:29:38;;;;;;;2.58;2.08;;;;;;;-0.67;77.68;100951.44;5072186;28;20033;-33
2024/01/08 08:32:05;;;;;;;2.83;2.47;;;;;;;-0.55;78.61;100937.69;5072001;28;20575;-37
2024/01/08 08:34:31;;;;;;;2.97;1.95;;;;;;;-0.66;80.33;100937.41;5072100;28;20040;-38
2024/01/08 08:36:56;;;;;;;2.63;2.22;;;;;;;-0.66;79.29;100940.88;5071814;28;20037;-33
2024/01/08 08:39:22;;;;;;;3.17;1.77;;;;;;;-0.67;80.17;100943.59;5072102;28;20036;-37
2024/01/08 08:41:48;;;;;;;3.00;2.03;;;;;;;-0.63;79.00;100947.72;5071889;28;20044;-34
2024/01/08 08:44:14;;;;;;;2.78;2.45;;;;;;;-0.70;79.12;100944.63;5071908;28;20038;-34
2024/01/08 08:46:39;;;;;;;3.25;2.75;;;;;;;-0.48;79.67;100944.25;5071627;28;20032;-35
2024/01/08 08:49:06;;;;;;;4.15;2.30;;;;;;;-0.63;79.19;100942.50;5072141;28;20410;-33
2024/01/08 08:51:33;;;;;;;2.47;2.00;;;;;;;-0.58;79.54;100949.16;5072255;28;20119;-35
2024/01/08 08:54:02;;;;;;;2.55;2.35;;;;;;;-0.38;77.92;100948.06;5072001;28;20048;-34
2024/01/08 08:56:27;;;;;;;3.13;2.53;;;;;;;-0.57;81.43;100950.00;5071368;28;20074;-34
2024/01/08 08:58:52;;;;;;;2.47;1.85;;;;;;;-0.66;78.86;100971.44;5072542;28;20100;-35
2024/01/08 09:01:18;;;;;;;3.22;2.17;;;;;;;-0.37;78.33;100959.38;5071813;28;20539;-34
2024/01/08 09:03:44;;;;;;;3.10;2.30;;;;;;;-0.37;80.22;100960.22;5071842;28;20036;-34
2024/01/08 09:06:09;;;;;;;2.63;1.90;;;;;;;-0.36;79.21;100959.28;5071671;28;20040;-35
2024/01/08 09:08:34;;;;;;;1.83;1.40;;;;;;;-0.53;78.24;100976.84;5071791;28;20507;-37
2024/01/08 09:11:00;;;;;;;3.42;2.67;;;;;;;-0.34;76.07;100973.13;5071802;28;20029;-33
2024/01/08 09:13:25;;;;;;;3.42;2.65;;;;;;;-0.49;76.75;100970.53;5071755;28;20036;-33
2024/01/08 09:15:51;;;;;;;3.00;2.47;;;;;;;-0.24;77.53;100964.75;5071497;28;20543;-37
2024/01/08 09:18:16;;;;;;;2.85;2.33;;;;;;;-0.15;77.77;100972.94;5071218;28;20035;-33
2024/01/08 09:20:42;;;;;;;3.58;2.58;;;;;;;-0.41;78.46;100970.94;5071449;28;20044;-34
2024/01/08 09:23:08;;;;;;;3.15;2.40;;;;;;;-0.27;79.23;100979.69;5071709;28;20185;-34
2024/01/08 09:25:33;;;;;;;3.08;2.60;;;;;;;-0.10;78.60;100975.28;5071301;28;20119;-34
2024/01/08 09:27:59;;;;;;;3.40;2.20;;;;;;;-0.24;79.77;100975.25;5071114;28;20033;-33
2024/01/08 09:30:24;;;;;;;2.58;2.08;;;;;;;-0.29;79.39;100983.34;5071666;28;20040;-33
2024/01/08 09:32:50;;;;;;;3.75;1.75;;;;;;;-0.50;78.63;100987.16;5071556;28;20447;-33
2024/01/08 09:35:15;;;;;;;2.95;1.98;;;;;;;-0.56;78.60;100988.34;5071575;28;20076;-36
2024/01/08 09:37:40;;;;;;;2.97;2.20;;;;;;;-0.33;78.38;100990.53;5070852;28;20036;-34
2024/01/08 09:40:07;;;;;;;3.40;2.60;;;;;;;-0.28;78.90;100991.09;5071665;28;20051;-33
2024/01/08 09:42:34;;;;;;;3.58;2.55;;;;;;;-0.46;79.20;100999.97;5071395;28;20036;-35
2024/01/08 09:45:03;;;;;;;2.85;2.20;;;;;;;-0.56;81.10;101001.44;5071327;28;20620;-36
2024/01/08 09:47:29;;;;;;;3.13;2.45;;;;;;;-0.56;80.14;101004.03;5070675;28;20092;-35
2024/01/08 09:49:56;;;;;;;2.63;2.15;;;;;;;-0.65;79.63;101005.41;5071401;28;20115;-35
2024/01/08 09:52:22;;;;;;;1.60;1.40;;;;;;;-0.67;79.55;101009.84;5071734;28;20395;-33
2024/01/08 09:54:48;;;;;;;3.05;2.03;;;;;;;-0.68;80.05;101004.69;5071319;28;20130;-36
2024/01/08 09:57:13;;;;;;;2.83;2.28;;;;;;;-0.52;78.64;100999.47;5070979;28;20028;-34
2024/01/08 09:59:39;;;;;;;4.03;2.88;;;;;;;-0.56;79.38;100998.81;5071317;28;20052;-33
2024/01/08 10:02:14;;;;;;;3.42;2.40;;;;;;;-0.34;80.32;101003.69;5071137;28;20078;-33
2024/01/08 10:04:40;;;;;;;2.17;1.67;;;;;;;-0.62;78.92;101004.38;5071274;28;20044;-35
2024/01/08 10:07:07;;;;;;;3.58;2.60;;;;;;;-0.65;79.85;101012.41;5070859;28;20445;-33
2024/01/08 10:09:33;;;;;;;3.55;2.40;;;;;;;-0.52;78.86;101016.03;5075049;28;20032;-37
2024/01/08 10:11:58;;;;;;;2.95;2.33;;;;;;;-0.70;79.72;101007.41;5074915;28;20028;-32
2024/01/08 10:14:25;;;;;;;2.70;2.25;;;;;;;-0.69;79.88;101003.84;5072859;28;20052;-37
2024/01/08 10:16:51;;;;;;;2.60;1.38;;;;;;;-0.88;80.29;101003.16;5065040;28;20044;-37
2024/01/08 10:19:18;;;;;;;3.88;2.30;;;;;;;-0.58;79.52;101013.75;5066518;28;20095;-38
2024/01/08 10:21:45;;;;;;;1.92;1.73;;;;;;;-0.94;80.35;101003.47;5065997;28;20029;-33
2024/01/08 10:24:10;;;;;;;3.03;2.10;;;;;;;-0.88;82.06;101003.16;5064948;28;20497;-35
2024/01/08 10:26:38;;;;;;;3.20;2.53;;;;;;;-0.74;82.65;101005.03;5063574;28;20027;-39
2024/01/08 10:29:03;;;;;;;2.78;2.45;;;;;;;-0.92;84.27;100999.00;5065903;28;20379;-33
2024/01/08 10:31:29;;;;;;;4.05;2.50;;;;;;;-0.83;83.59;101002.00;5056286;28;20036;-34
2024/01/08 10:34:03;;;;;;;3.55;2.35;;;;;;;-0.62;84.01;100999.13;5064292;28;20036;-37
2024/01/08 10:36:35;;;;;;;3.05;2.38;;;;;;;-0.49;83.44;100997.53;5063090;28;20522;-33
2024/01/08 10:39:03;;;;;;;3.70;2.83;;;;;;;-0.59;84.50;101006.81;5064627;28;20040;-35
2024/01/08 10:41:28;;;;;;;5.65;2.33;;;;;;;-0.84;81.73;100995.06;5068011;28;20033;-35
2024/01/08 10:43:54;;;;;;;3.70;3.13;;;;;;;-0.65;81.65;101000.16;5059676;28;20553;-37
2024/01/08 10:46:21;;;;;;;3.38;2.47;;;;;;;-0.68;82.04;101007.31;5052113;28;20428;-37
2024/01/08 10:48:50;;;;;;;3.63;2.00;;;;;;;-0.71;82.23;100994.41;5066176;28;20029;-32
2024/01/08 10:51:17;;;;;;;2.08;1.85;;;;;;;-0.87;79.46;100989.16;5067520;28;20043;-33
2024/01/08 10:53:47;;;;;;;3.13;1.83;;;;;;;-0.83;78.62;100998.53;5067530;28;20429;-37
2024/01/08 10:56:20;;;;;;;3.78;2.42;;;;;;;-0.65;77.41;101007.16;5068368;28;20048;-35
2024/01/08 10:59:05;;;;;;;3.05;2.47;;;;;;;-0.70;76.29;100996.09;5074035;28;20146;-32
2024/01/08 11:01:32;;;;;;;4.55;2.13;;;;;;;-0.67;75.82;100993.31;5074045;28;20126;-34
2024/01/08 11:03:59;;;;;;;3.33;2.58;;;;;;;-0.51;75.53;100998.56;5074250;28;20040;-33
2024/01/08 11:06:24;;;;;;;3.27;2.60;;;;;;;-0.61;75.64;100996.44;5073830;28;20040;-36
2024/01/08 11:08:50;;;;;;;4.55;2.97;;;;;;;-0.48;73.83;100996.59;5073949;28;20040;-33
2024/01/08 11:11:17;;;;;;;2.47;2.00;;;;;;;-0.52;74.65;100999.47;5074024;28;20051;-34
2024/01/08 11:13:44;;;;;;;4.78;2.63;;;;;;;-0.57;74.67;100994.50;5074196;28;20370;-33
2024/01/08 11:16:16;;;;;;;3.78;1.75;;;;;;;-0.52;76.38;100997.72;5067662;28;20481;-34
2024/01/08 11:18:41;;;;;;;2.45;1.95;;;;;;;-0.39;73.68;100998.72;5063139;28;20392;-34
2024/01/08 11:21:07;;;;;;;2.38;2.17;;;;;;;-0.84;72.45;100999.47;5064179;28;20036;-36
2024/01/08 11:23:40;;;;;;;4.40;2.25;;;;;;;-0.70;73.08;101003.94;5062197;28;20439;-33
2024/01/08 11:26:22;;;;;;;3.58;2.17;;;;;;;-0.64;72.04;101012.31;5064094;28;20130;-34
2024/01/08 11:29:08;;;;;;;2.38;1.67;;;;;;;-0.73;70.36;101001.47;5053593;28;20111;-34
2024/01/08 11:31:46;;;;;;;2.72;2.03;;;;;;;-0.71;69.85;101000.50;5053453;28;20143;-33
2024/01/08 11:34:17;;;;;;;2.00;1.80;;;;;;;-0.91;69.92;100991.09;5053575;28;20044;-37
2024/01/08 11:36:47;;;;;;;4.05;2.60;;;;;;;-0.67;70.39;100986.28;5053189;28;20049;-37
2024/01/08 11:39:16;;;;;;;4.00;2.28;;;;;;;-0.55;71.48;100996.09;5053405;28;20110;-34
2024/01/08 11:41:41;;;;;;;1.73;1.50;;;;;;;-0.71;69.58;100995.25;5053264;28;20033;-34
2024/01/08 11:44:07;;;;;;;3.45;1.95;;;;;;;-0.67;71.00;100985.44;5053412;28;20094;-39
2024/01/08 11:46:34;;;;;;;2.50;2.10;;;;;;;-0.36;71.48;100980.22;5052995;28;20128;-33
2024/01/08 11:49:00;;;;;;;3.22;1.98;;;;;;;-0.93;68.83;100997.31;5053132;28;20040;-34
2024/01/08 11:51:26;;;;;;;6.13;1.55;;;;;;;-0.96;70.02;100985.25;5053162;28;20168;-36
2024/01/08 11:53:52;;;;;;;1.70;1.60;;;;;;;-0.90;69.09;100989.31;5053099;28;20041;-33
2024/01/08 11:56:18;;;;;;;2.40;1.83;;;;;;;-0.83;69.07;100980.22;5052964;28;20551;-39
2024/01/08 11:58:44;;;;;;;1.67;1.50;;;;;;;-0.84;69.09;100981.16;5053092;28;20128;-39
2024/01/08 12:01:17;;;;;;;2.10;1.65;;;;;;;-0.89;70.32;100980.53;5052920;28;20083;-36
2024/01/08 12:03:42;;;;;;;2.95;1.88;;;;;;;-0.71;70.49;100984.78;5052999;28;20040;-34
2024/01/08 12:06:08;;;;;;;2.85;1.45;;;;;;;-0.99;69.78;100990.63;5052681;28;20079;-33
2024/01/08 12:08:34;;;;;;;3.70;1.98;;;;;;;-0.89;69.11;100983.16;5052826;28;20029;-39
2024/01/08 12:11:01;;;;;;;2.28;1.77;;;;;;;-0.87;70.49;100997.00;5052776;28;20041;-34
2024/01/08 12:13:26;;;;;;;3.65;1.73;;;;;;;-0.88;71.70;100987.47;5052806;28;20048;-33
2024/01/08 12:15:52;;;;;;;3.20;2.28;;;;;;;-0.71;71.23;100991.81;5052614;28;20041;-38
2024/01/08 12:18:17;;;;;;;2.67;1.80;;;;;;;-0.92;71.49;100999.84;5067742;28;20032;-34
2024/01/08 12:20:44;;;;;;;3.25;2.33;;;;;;;-1.14;70.00;100997.53;5072487;28;20036;-33
2024/01/08 12:23:10;;;;;;;3.08;1.92;;;;;;;-1.06;70.88;100991.88;5072394;28;20039;-38
2024/01/08 12:25:35;;;;;;;2.72;1.75;;;;;;;-1.15;70.75;100995.84;5072309;28;20131;-33
2024/01/08 12:28:01;;;;;;;2.88;1.75;;;;;;;-1.15;70.88;100992.38;5072114;28;20032;-33
2024/01/08 12:30:27;;;;;;;3.45;1.95;;;;;;;-1.18;69.53;100989.91;5071979;28;20098;-33
2024/01/08 12:32:53;;;;;;;3.53;1.90;;;;;;;-1.18;70.44;100988.16;5072348;28;20033;-33
2024/01/08 12:35:18;;;;;;;2.55;1.83;;;;;;;-1.16;70.00;100988.94;5072237;28;20040;-36
2024/01/08 12:37:44;;;;;;;4.53;2.53;;;;;;;-0.82;70.93;100989.75;5071918;28;20047;-37
2024/01/08 12:40:11;;;;;;;2.65;1.80;;;;;;;-0.95;70.06;100993.94;5072273;28;20609;-35
2024/01/08 12:42:36;;;;;;;3.70;1.90;;;;;;;-0.99;69.18;101002.88;5072250;28;20051;-36
2024/01/08 12:45:04;;;;;;;4.28;1.88;;;;;;;-1.13;68.93;100996.59;5072098;28;20041;-35
2024/01/08 12:47:30;;;;;;;2.90;1.98;;;;;;;-1.06;69.16;100998.91;5071897;28;20044;-39
2024/01/08 12:49:56;;;;;;;3.75;2.22;;;;;;;-1.03;68.79;100990.91;5072169;28;20170;-33
2024/01/08 12:52:22;;;;;;;2.63;2.05;;;;;;;-0.96;68.87;100987.03;5072033;28;20479;-34
2024/01/08 12:54:48;;;;;;;2.08;1.88;;;;;;;-1.24;68.44;101005.91;5071928;28;20036;-33
2024/01/08 12:57:15;;;;;;;3.45;2.40;;;;;;;-0.96;69.61;100994.88;5071674;28;20063;-33
2024/01/08 12:59:55;;;;;;;3.10;2.50;;;;;;;-0.76;68.79;100989.41;5071982;28;20509;-33
2024/01/08 13:02:22;;;;;;;1.92;1.67;;;;;;;-1.10;69.38;100996.47;5071891;28;20032;-38
2024/01/08 13:04:49;;;;;;;3.60;2.10;;;;;;;-0.74;69.13;100991.94;5071765;28;20048;-33
2024/01/08 13:07:15;;;;;;;1.53;1.40;;;;;;;-1.13;68.65;100993.16;5071466;28;20036;-37
2024/01/08 13:09:40;;;;;;;3.45;1.88;;;;;;;-0.94;68.97;100995.63;5071837;28;20032;-35
2024/01/08 13:12:07;;;;;;;2.88;1.90;;;;;;;-0.87;69.21;100991.75;5071833;28;20042;-32
2024/01/08 13:14:33;;;;;;;4.15;2.45;;;;;;;-0.72;69.14;100990.94;5071727;28;20111;-34
2024/01/08 13:16:59;;;;;;;2.15;1.58;;;;;;;-0.98;68.89;100997.59;5071315;28;20183;-32
2024/01/08 13:19:24;;;;;;;2.00;1.80;;;;;;;-1.10;69.90;100999.06;5071721;28;20040;-37
2024/01/08 13:21:50;;;;;;;4.07;2.20;;;;;;;-1.10;67.74;101003.47;5071386;28;20507;-34
2024/01/08 13:24:16;;;;;;;2.15;1.55;;;;;;;-1.28;67.91;101010.47;5071678;28;20116;-33
2024/01/08 13:26:42;;;;;;;2.47;1.77;;;;;;;-1.13;68.97;101014.06;5071370;28;20037;-33
2024/01/08 13:29:09;;;;;;;3.65;2.05;;;;;;;-1.29;69.16;101003.56;5070413;28;20044;-34
2024/01/08 13:31:35;;;;;;;3.45;2.17;;;;;;;-1.05;68.33;101006.66;5071746;28;20039;-32
2024/01/08 13:34:05;;;;;;;3.78;2.17;;;;;;;-1.40;69.31;101016.34;5070345;28;20025;-33
2024/01/08 13:36:31;;;;;;;4.07;1.95;;;;;;;-1.42;69.12;101031.25;5071958;28;20033;-33
2024/01/08 13:38:58;;;;;;;4.95;2.40;;;;;;;-1.46;68.96;101004.41;5070498;28;20514;-39
2024/01/08 13:41:25;;;;;;;3.28;2.22;;;;;;;-1.27;69.77;101008.72;5071626;28;20546;-33
2024/01/08 13:43:51;;;;;;;3.35;2.22;;;;;;;-1.41;69.85;101009.41;5074631;28;20039;-37
2024/01/08 13:46:16;;;;;;;3.53;2.42;;;;;;;-1.48;70.07;101010.66;5075392;28;20037;-33
2024/01/08 13:48:42;;;;;;;4.65;3.00;;;;;;;-1.37;69.56;101018.78;5075404;28;20123;-34
2024/01/08 13:51:10;;;;;;;3.25;1.70;;;;;;;-1.51;70.38;101009.03;5074308;28;20079;-36
2024/01/08 13:53:36;;;;;;;3.40;2.78;;;;;;;-1.53;69.69;101016.09;5075498;28;20135;-36
2024/01/08 13:56:03;;;;;;;3.55;2.30;;;;;;;-1.58;69.41;101012.03;5074860;28;20040;-33
2024/01/08 13:58:29;;;;;;;4.70;3.50;;;;;;;-1.47;69.69;101009.72;5075256;28;20551;-32
2024/01/08 14:00:55;;;;;;;4.32;2.78;;;;;;;-1.28;69.56;101012.25;5075285;28;20127;-32
2024/01/08 14:03:20;;;;;;;4.90;2.78;;;;;;;-1.16;69.52;101016.84;5075233;28;20238;-33
2024/01/08 14:05:46;;;;;;;2.55;1.75;;;;;;;-1.33;69.84;101012.47;5075053;28;20044;-34
2024/01/08 14:08:11;;;;;;;2.95;2.25;;;;;;;-1.24;70.96;101021.59;5074935;28;20147;-41
2024/01/08 14:10:38;;;;;;;4.68;2.65;;;;;;;-1.28;70.81;101031.41;5075212;28;20072;-34
2024/01/08 14:13:04;;;;;;;4.28;2.83;;;;;;;-1.19;69.06;101028.28;5075087;28;20029;-37
2024/01/08 14:15:30;;;;;;;4.07;3.20;;;;;;;-1.26;70.81;101032.16;5074877;28;20037;-39
2024/01/08 14:17:57;;;;;;;4.97;2.95;;;;;;;-1.22;70.05;101027.63;5074679;28;20036;-38
2024/01/08 14:20:22;;;;;;;4.17;2.33;;;;;;;-1.33;70.43;101027.31;5074800;28;20090;-34
2024/01/08 14:22:48;;;;;;;2.88;2.17;;;;;;;-1.58;69.96;101017.25;5074769;28;20396;-35
2024/01/08 14:25:16;;;;;;;5.35;2.78;;;;;;;-1.53;71.86;101033.56;5074884;28;20067;-36
2024/01/08 14:27:41;;;;;;;3.33;2.25;;;;;;;-1.54;70.28;101024.03;5074520;28;20140;-35
2024/01/08 14:30:07;;;;;;;2.55;2.30;;;;;;;-1.80;69.67;101039.22;5074757;28;20111;-35
2024/01/08 14:32:33;;;;;;;4.75;2.47;;;;;;;-1.66;70.88;101049.84;5074632;28;20127;-37
2024/01/08 14:34:59;;;;;;;4.22;2.85;;;;;;;-1.67;70.63;101044.69;5074566;28;20090;-34
2024/01/08 14:37:28;;;;;;;5.45;2.97;;;;;;;-1.64;69.51;101048.00;5074341;28;20036;-34
2024/01/08 14:39:55;;;;;;;4.88;3.17;;;;;;;-1.69;69.67;101042.16;5074468;28;20051;-37
2024/01/08 14:42:21;;;;;;;4.07;3.00;;;;;;;-1.79;70.33;101051.38;5073218;28;20048;-33
2024/01/08 14:44:47;;;;;;;3.58;2.70;;;;;;;-1.83;70.39;101041.97;5074390;28;20401;-35
2024/01/08 14:47:12;;;;;;;4.00;2.30;;;;;;;-1.79;71.28;101045.28;5074104;28;20041;-36
2024/01/08 14:49:38;;;;;;;3.33;2.58;;;;;;;-1.74;72.37;101048.53;5074354;28;20041;-36
2024/01/08 14:52:04;;;;;;;4.07;2.20;;;;;;;-1.50;72.41;101051.69;5074374;28;20032;-33
2024/01/08 14:54:29;;;;;;;2.10;1.80;;;;;;;-1.81;71.61;101050.59;5073944;28;20496;-34
2024/01/08 14:56:54;;;;;;;2.30;2.00;;;;;;;-1.78;72.12;101053.06;5073912;28;20455;-36
2024/01/08 14:59:20;;;;;;;3.65;2.45;;;;;;;-1.69;73.52;101054.38;5067997;28;20062;-38
2024/01/08 15:01:45;;;;;;;2.53;2.17;;;;;;;-1.76;73.24;101060.81;5062937;28;20033;-36
2024/01/08 15:04:11;;;;;;;3.95;2.85;;;;;;;-1.82;72.53;101054.13;5063648;28;20112;-34
2024/01/08 15:06:37;;;;;;;3.97;2.47;;;;;;;-1.79;72.31;101068.81;5064109;28;20041;-36
2024/01/08 15:09:04;;;;;;;4.28;2.90;;;;;;;-1.97;72.23;101060.09;5062593;28;20568;-36
2024/01/08 15:11:30;;;;;;;4.20;3.08;;;;;;;-1.94;73.60;101063.41;5063800;28;20037;-38
2024/01/08 15:13:55;;;;;;;4.68;2.38;;;;;;;-2.08;72.93;101075.44;5064074;28;20538;-35
2024/01/08 15:16:21;;;;;;;2.63;1.88;;;;;;;-2.14;72.75;101080.94;5062223;28;20385;-34
2024/01/08 15:18:47;;;;;;;1.90;1.73;;;;;;;-2.15;71.90;101097.50;5064039;28;20049;-39
2024/01/08 15:21:12;;;;;;;8.10;2.88;;;;;;;-2.12;72.31;101086.94;5063443;28;20396;-39
2024/01/08 15:23:38;;;;;;;3.00;2.40;;;;;;;-2.18;72.64;101080.22;5062638;28;20032;-35
2024/01/08 15:26:06;;;;;;;4.88;2.88;;;;;;;-2.23;72.65;101090.03;5064076;28;20028;-34
2024/01/08 15:28:34;;;;;;;3.83;3.30;;;;;;;-2.29;73.46;101090.31;5063186;28;20493;-34
2024/01/08 15:31:04;;;;;;;3.83;1.77;;;;;;;-2.25;73.92;101091.88;5062193;28;20037;-37
2024/01/08 15:33:31;;;;;;;7.32;3.40;;;;;;;-2.15;73.92;101084.44;5063361;28;20047;-34
2024/01/08 15:35:57;;;;;;;5.07;2.90;;;;;;;-2.17;74.16;101092.34;5061889;28;20021;-44
2024/01/08 15:38:23;;;;;;;4.03;3.10;;;;;;;-2.34;73.49;101100.13;5063334;28;20083;-39
2024/01/08 15:40:49;;;;;;;3.53;2.42;;;;;;;-2.42;74.47;101099.63;5060117;28;20037;-37
2024/01/08 15:43:14;;;;;;;3.50;2.40;;;;;;;-2.47;74.07;101092.88;5061973;28;20036;-35
2024/01/08 15:45:40;;;;;;;4.32;2.38;;;;;;;-2.50;72.73;101097.38;5063410;28;20037;-36
2024/01/08 15:48:05;;;;;;;3.78;3.00;;;;;;;-2.60;73.76;101091.72;5061839;28;20496;-35
2024/01/08 15:50:31;;;;;;;5.93;3.33;;;;;;;-2.60;73.19;101101.31;5063068;28;20131;-37
2024/01/08 15:52:56;;;;;;;4.65;3.03;;;;;;;-2.57;75.62;101094.19;5062295;28;20080;-34
2024/01/08 15:55:22;;;;;;;5.57;3.70;;;;;;;-2.57;74.76;101103.78;5061654;28;20036;-35
2024/01/08 15:57:47;;;;;;;5.72;3.35;;;;;;;-2.63;74.67;101115.31;5063175;28;20043;-36
2024/01/08 16:00:13;;;;;;;4.43;2.10;;;;;;;-2.63;74.19;101109.25;5062577;28;20502;-34
2024/01/08 16:02:38;;;;;;;5.32;3.38;;;;;;;-2.60;75.23;101106.53;5064188;28;20044;-35
2024/01/08 16:05:05;;;;;;;7.93;3.47;;;;;;;-2.51;74.03;101119.16;5060962;28;20048;-37
2024/01/08 16:07:31;;;;;;;5.13;3.60;;;;;;;-2.52;74.27;101123.53;5061235;28;20039;-34
2024/01/08 16:09:57;;;;;;;4.75;2.97;;;;;;;-2.46;74.11;101131.09;5062676;28;20032;-34
2024/01/08 16:12:22;;;;;;;4.45;2.60;;;;;;;-2.44;75.21;101130.16;5062955;28;20043;-34
2024/01/08 16:14:48;;;;;;;5.93;3.55;;;;;;;-2.42;75.49;101136.16;5061180;28;20028;-37
2024/01/08 16:17:15;;;;;;;4.28;3.25;;;;;;;-2.34;74.94;101134.91;5062576;28;20506;-38
2024/01/08 16:19:41;;;;;;;4.43;2.77;;;;;;;-2.50;75.36;101139.09;5062579;28;20184;-34
2024/01/08 16:22:06;;;;;;;4.72;3.10;;;;;;;-2.55;76.45;101144.53;5060847;28;20048;-35
2024/01/08 16:24:32;;;;;;;5.05;3.40;;;;;;;-2.60;76.70;101137.84;5063173;28;20044;-35
2024/01/08 16:26:57;;;;;;;3.15;2.17;;;;;;;-2.66;77.22;101148.53;5061655;28;20078;-36
2024/01/08 16:29:22;;;;;;;5.10;3.17;;;;;;;-2.65;76.24;101151.06;5057098;28;20575;-35
2024/01/08 16:31:48;;;;;;;4.65;2.70;;;;;;;-2.50;76.18;101158.22;5060891;28;20074;-34
2024/01/08 16:34:13;;;;;;;5.20;2.78;;;;;;;-2.61;75.25;101173.53;5063381;28;20043;-38
2024/01/08 16:36:39;;;;;;;4.30;2.80;;;;;;;-2.49;75.70;101159.06;5061823;28;20052;-33
2024/01/08 16:39:06;;;;;;;6.28;3.78;;;;;;;-2.39;75.15;101168.19;5060941;28;20123;-34
2024/01/08 16:41:31;;;;;;;5.47;3.65;;;;;;;-2.39;75.39;101156.91;5062951;28;20029;-37